Ana Sayfa
METAR-TAF:

METAR-TAF

Havaalanları :

Upshur County Regional Airport

Buckhannon, Batı Virginia, Amerika Birleşik Devletleri

Enlem: 39-00N, Boylam: 080-16W, yükseklik: 498 m

Güncel hava durumu gözlemi

Rapor saat 03:55 UTC de 25 dakika önce yapıldı.
Sakin rüzgar
Sıcaklık 0°C
Nem 100%
Basınç 1020 hPa
Görüş mesafesi: 2.8 km
300 ft yükseklikte parçalı çok bulutlu
2600 ft yükseklikte çok bulutlu
hafif kar

METAR: KW22 160355Z AUTO 00000KT 1 3/4SM -SN BKN003 OVC026 00/00 A3013 RMK AO2

Saat: 23:20 (04:20 UTC)


TAF: eksik

4.000'den fazla havaalanı için hava durumu gözlemleri ve tahminleri (METAR ve TAF raporları).

Kullanılabilir istasyonlar harita üzerinde sarı ve kırmızı noktalarla gösterilir.

İstasyonun adını görmek için fareyi noktanın üzerinde gezdirin.

Sonrasında hava gözlem ve tahminlerini görmek için tıklayın.

Haritayı değiştirmek için: yaklaştırmak için siyah artı işaretli yeşil düğmeye ve uzaklaştırmak için de eksi işaretli düğmeye hızla tıklayın; bitişik haritalar için yeşil okları kullanın.


METAR-TAF: